4/1 a 16/1 - Refrescada, luego gran ola de calor (+40s y records), final con aire tropical y tormentas

Avatar de Usuario
Ernest
Mensajes: 16556
Registrado: Vie Jul 17, 2009 10:54 pm
Ubicación: Balvanera, CABA

Re: 4/1 a 15/1 - Refrescada, luego gran ola de calor región central; lluvias y tormentas NOA y Cuyo, escasas resto

Mensaje por Ernest »

28,4 grados con 48 % HR me reportan en Savio, espectacular tarde en todo el AMBA. Acá cerca del río debe estar más fresco (estoy a unas cuadras de mi casa).
Did you want to talk about the weather, or were you just making chitchat?

Twitter: @ErnestoAtmoII
Avatar de Usuario
HernanCba
Mensajes: 3963
Registrado: Sab Mar 02, 2013 1:21 am
Ubicación: Cosquín, Valle de Punilla, Córdoba

Re: 4/1 a 15/1 - Refrescada, luego gran ola de calor región central; lluvias y tormentas NOA y Cuyo, escasas resto

Mensaje por HernanCba »

Algunos chaparrones aislados dando vueltas por las sierras. Cielo nublado


Avatar de Usuario
Ezequiel1995
Mensajes: 2794
Registrado: Mar Nov 12, 2019 4:50 pm
Ubicación: Merlo, Buenos Aires

Re: 4/1 a 15/1 - Refrescada, luego gran ola de calor región central; lluvias y tormentas NOA y Cuyo, escasas resto

Mensaje por Ezequiel1995 »

Nuboso por acá ahora, cálido pero muy pasable, también ventoso
Merlo, Provincia de Buenos Aires
⎯⎯⎯⎯⎯⎯⎯⎯⎯⎯⎯⎯⎯⎯⎯⎯⎯⎯⎯⎯⎯⎯⎯⎯⎯⎯⎯⎯⎯⎯⎯⎯
Aplicación Gustfront! 2.5
Avatar de Usuario
Ezequiel15
Mensajes: 14696
Registrado: Lun Ene 23, 2012 4:18 pm
Ubicación: Ramos Mejia

Re: 4/1 a 15/1 - Refrescada, luego gran ola de calor región central; lluvias y tormentas NOA y Cuyo, escasas resto

Mensaje por Ezequiel15 »

Avatar de Usuario
Diecha
Mensajes: 20023
Registrado: Jue Ago 25, 2011 9:31 pm
Ubicación: Lomas de Zamora

Re: 4/1 a 15/1 - Refrescada, luego gran ola de calor región central; lluvias y tormentas NOA y Cuyo, escasas resto

Mensaje por Diecha »

- Iguazú 17 hs: SARI 072000Z 05006KT 9999 BKN030 FEW050CB 30/20 Q1007

Imagen
Imagen
Avatar de Usuario
Diecha
Mensajes: 20023
Registrado: Jue Ago 25, 2011 9:31 pm
Ubicación: Lomas de Zamora

Re: 4/1 a 15/1 - Refrescada, luego gran ola de calor región central; lluvias y tormentas NOA y Cuyo, escasas resto

Mensaje por Diecha »



Imagen
Imagen
Avatar de Usuario
Ernest
Mensajes: 16556
Registrado: Vie Jul 17, 2009 10:54 pm
Ubicación: Balvanera, CABA

Re: 4/1 a 15/1 - Refrescada, luego gran ola de calor región central; lluvias y tormentas NOA y Cuyo, escasas resto

Mensaje por Ernest »

23,5 grados con 70 % HR en Once, noche agradable pero pegajosa y con poco viento.
En Savio 24 grados con 72 % HR poco antes de las 21.
Did you want to talk about the weather, or were you just making chitchat?

Twitter: @ErnestoAtmoII
Avatar de Usuario
Ezequiel1995
Mensajes: 2794
Registrado: Mar Nov 12, 2019 4:50 pm
Ubicación: Merlo, Buenos Aires

Re: 4/1 a 15/1 - Refrescada, luego gran ola de calor región central; lluvias y tormentas NOA y Cuyo, escasas resto

Mensaje por Ezequiel1995 »

Hermoso viento acá
Merlo, Provincia de Buenos Aires
⎯⎯⎯⎯⎯⎯⎯⎯⎯⎯⎯⎯⎯⎯⎯⎯⎯⎯⎯⎯⎯⎯⎯⎯⎯⎯⎯⎯⎯⎯⎯⎯
Aplicación Gustfront! 2.5
Avatar de Usuario
Diecha
Mensajes: 20023
Registrado: Jue Ago 25, 2011 9:31 pm
Ubicación: Lomas de Zamora

Re: 4/1 a 15/1 - Refrescada, luego gran ola de calor región central; lluvias y tormentas NOA y Cuyo, escasas resto

Mensaje por Diecha »

Ushuaia:
Imagen
www.youtube.com/watch?v=eFtpjzdoVyQ

- Río Grande 21 hs: SAWE 080000Z 02010KT 4000 RA BR SCT008 BKN012 OVC060 10/08 Q0994
- Ushuaia 21 hs: SAWH 080000Z 36015KT 6000 RA BKN030 OVC050 10/06 Q0992

Imagen
Imagen
nahuel
Mensajes: 3078
Registrado: Vie May 09, 2014 2:20 am
Ubicación: santa rosa, La Pampa

Re: 4/1 a 15/1 - Refrescada, luego gran ola de calor región central; lluvias y tormentas NOA y Cuyo, escasas resto

Mensaje por nahuel »

Hola a todos !! Noche hermosa con 27 grados previo a lo que se viene en los proximos dias. Hoy fue un dia muy llevadero las nubes altas molestaron bastante asi que no logro un asenso pronunciado. En fin a prepararnos para lo que se viene😀😀😀